Cedar Bonnet Island, New Jersey
Current Conditions -  °F | °C
As of 11:35 PM on Saturday 22 Nov 2014 (Local Time) from KMJX Reporting Station
Overcast Overcast  
Wind Chill: 37°   Ceiling: 12000
Heat Index: 41°   Visibility: 10mi
Dew Point: 23°   Wind: 6mph
Humidity: 49%   Direction: 230°SW
Pressure: 30.25"   Gusts: NA
Location:  39.7102°N, 74.2577°W
Report Text: KMJX 230435Z AUTO 23005KT 10SM OVC120 05/M05 A3025 RMK AO1
Loading
Personal Weather Stations






























Interactive Weather Map New forecast layout! Learn more

10-Day Weather Forecast

Advertisements
Track Severe Weather on mobile